sensor_id;sensor_type;location;lat;lon;timestamp;temperature;humidity
63051;SHT30;49136;47.416;19.402;2023-08-20T00:00:15;20.17;99.99
63051;SHT30;49136;47.416;19.402;2023-08-20T00:02:42;20.12;99.99
63051;SHT30;49136;47.416;19.402;2023-08-20T00:05:08;20.10;99.99
63051;SHT30;49136;47.416;19.402;2023-08-20T00:07:34;20.05;99.99
63051;SHT30;49136;47.416;19.402;2023-08-20T00:10:00;20.05;99.99
63051;SHT30;49136;47.416;19.402;2023-08-20T00:12:25;20.01;99.99
63051;SHT30;49136;47.416;19.402;2023-08-20T00:14:53;19.96;99.99
63051;SHT30;49136;47.416;19.402;2023-08-20T00:17:24;20.03;99.99
63051;SHT30;49136;47.416;19.402;2023-08-20T00:19:55;19.96;99.99
63051;SHT30;49136;47.416;19.402;2023-08-20T00:22:24;19.94;99.99
63051;SHT30;49136;47.416;19.402;2023-08-20T00:24:54;19.87;99.99
63051;SHT30;49136;47.416;19.402;2023-08-20T00:27:20;19.85;99.99
63051;SHT30;49136;47.416;19.402;2023-08-20T00:29:46;19.89;99.99
63051;SHT30;49136;47.416;19.402;2023-08-20T00:32:12;19.83;99.99
63051;SHT30;49136;47.416;19.402;2023-08-20T00:34:37;19.82;99.99
63051;SHT30;49136;47.416;19.402;2023-08-20T00:37:03;19.79;99.99
63051;SHT30;49136;47.416;19.402;2023-08-20T00:39:29;19.76;99.99
63051;SHT30;49136;47.416;19.402;2023-08-20T00:41:55;19.74;99.99
63051;SHT30;49136;47.416;19.402;2023-08-20T00:44:20;19.72;99.99
63051;SHT30;49136;47.416;19.402;2023-08-20T00:46:46;19.66;99.99
63051;SHT30;49136;47.416;19.402;2023-08-20T00:49:12;19.65;99.99
63051;SHT30;49136;47.416;19.402;2023-08-20T00:51:37;19.65;99.99
63051;SHT30;49136;47.416;19.402;2023-08-20T00:54:03;19.62;99.99
63051;SHT30;49136;47.416;19.402;2023-08-20T00:56:29;19.64;99.99
63051;SHT30;49136;47.416;19.402;2023-08-20T00:58:55;19.59;99.99
63051;SHT30;49136;47.416;19.402;2023-08-20T01:01:24;19.59;99.99
63051;SHT30;49136;47.416;19.402;2023-08-20T01:03:49;19.58;99.99
63051;SHT30;49136;47.416;19.402;2023-08-20T01:09:03;19.54;99.99
63051;SHT30;49136;47.416;19.402;2023-08-20T01:11:35;19.57;99.99
63051;SHT30;49136;47.416;19.402;2023-08-20T01:14:02;19.62;99.99
63051;SHT30;49136;47.416;19.402;2023-08-20T01:16:38;19.64;99.99
63051;SHT30;49136;47.416;19.402;2023-08-20T01:19:04;19.85;99.99
63051;SHT30;49136;47.416;19.402;2023-08-20T01:21:37;19.87;99.99
63051;SHT30;49136;47.416;19.402;2023-08-20T01:30:03;19.71;99.99
63051;SHT30;49136;47.416;19.402;2023-08-20T01:32:29;19.66;99.99
63051;SHT30;49136;47.416;19.402;2023-08-20T01:34:54;19.61;99.99
63051;SHT30;49136;47.416;19.402;2023-08-20T01:37:20;19.61;99.99
63051;SHT30;49136;47.416;19.402;2023-08-20T01:39:47;19.57;99.99
63051;SHT30;49136;47.416;19.402;2023-08-20T01:42:12;19.55;99.99
63051;SHT30;49136;47.416;19.402;2023-08-20T01:44:37;19.54;99.99
63051;SHT30;49136;47.416;19.402;2023-08-20T01:47:03;19.57;99.99
63051;SHT30;49136;47.416;19.402;2023-08-20T01:49:28;19.62;99.99
63051;SHT30;49136;47.416;19.402;2023-08-20T01:51:54;19.54;99.99
63051;SHT30;49136;47.416;19.402;2023-08-20T01:54:19;19.54;99.99
63051;SHT30;49136;47.416;19.402;2023-08-20T01:56:45;19.54;99.99
63051;SHT30;49136;47.416;19.402;2023-08-20T01:59:10;19.64;99.99
63051;SHT30;49136;47.416;19.402;2023-08-20T02:01:35;19.68;99.99
63051;SHT30;49136;47.416;19.402;2023-08-20T02:04:01;19.65;99.99
63051;SHT30;49136;47.416;19.402;2023-08-20T02:06:27;19.64;99.99
63051;SHT30;49136;47.416;19.402;2023-08-20T02:08:52;19.65;99.99
63051;SHT30;49136;47.416;19.402;2023-08-20T02:11:18;19.65;99.99
63051;SHT30;49136;47.416;19.402;2023-08-20T02:13:43;19.57;99.99
63051;SHT30;49136;47.416;19.402;2023-08-20T02:16:09;19.53;99.99
63051;SHT30;49136;47.416;19.402;2023-08-20T02:18:35;19.46;99.99
63051;SHT30;49136;47.416;19.402;2023-08-20T02:21:00;19.44;99.99
63051;SHT30;49136;47.416;19.402;2023-08-20T02:23:26;19.51;99.99
63051;SHT30;49136;47.416;19.402;2023-08-20T02:25:51;19.47;99.99
63051;SHT30;49136;47.416;19.402;2023-08-20T02:28:17;19.48;99.99
63051;SHT30;49136;47.416;19.402;2023-08-20T02:30:44;19.44;99.99
63051;SHT30;49136;47.416;19.402;2023-08-20T02:33:09;19.40;99.99
63051;SHT30;49136;47.416;19.402;2023-08-20T02:35:39;19.41;99.99
63051;SHT30;49136;47.416;19.402;2023-08-20T02:38:05;19.41;99.99
63051;SHT30;49136;47.416;19.402;2023-08-20T02:40:31;19.38;99.99
63051;SHT30;49136;47.416;19.402;2023-08-20T02:42:57;19.33;99.99
63051;SHT30;49136;47.416;19.402;2023-08-20T02:45:22;19.22;99.99
63051;SHT30;49136;47.416;19.402;2023-08-20T02:47:48;19.20;99.99
63051;SHT30;49136;47.416;19.402;2023-08-20T02:50:14;19.17;99.99
63051;SHT30;49136;47.416;19.402;2023-08-20T02:52:45;19.15;99.99
63051;SHT30;49136;47.416;19.402;2023-08-20T02:55:10;19.10;99.99
63051;SHT30;49136;47.416;19.402;2023-08-20T02:57:36;19.10;99.99
63051;SHT30;49136;47.416;19.402;2023-08-20T03:00:01;19.03;99.99
63051;SHT30;49136;47.416;19.402;2023-08-20T03:02:27;19.03;99.99
63051;SHT30;49136;47.416;19.402;2023-08-20T03:04:53;18.95;99.99
63051;SHT30;49136;47.416;19.402;2023-08-20T03:07:21;18.92;99.99
63051;SHT30;49136;47.416;19.402;2023-08-20T03:09:47;18.94;99.99
63051;SHT30;49136;47.416;19.402;2023-08-20T03:12:12;18.94;99.99
63051;SHT30;49136;47.416;19.402;2023-08-20T03:14:38;18.91;99.99
63051;SHT30;49136;47.416;19.402;2023-08-20T03:17:03;18.85;99.99
63051;SHT30;49136;47.416;19.402;2023-08-20T03:19:33;18.87;99.99
63051;SHT30;49136;47.416;19.402;2023-08-20T03:21:58;18.95;99.99
63051;SHT30;49136;47.416;19.402;2023-08-20T03:24:24;18.87;99.99
63051;SHT30;49136;47.416;19.402;2023-08-20T03:26:49;18.85;99.99
63051;SHT30;49136;47.416;19.402;2023-08-20T03:29:15;18.87;99.99
63051;SHT30;49136;47.416;19.402;2023-08-20T03:31:40;18.92;99.99
63051;SHT30;49136;47.416;19.402;2023-08-20T03:34:05;18.87;99.99
63051;SHT30;49136;47.416;19.402;2023-08-20T03:36:31;18.87;99.99
63051;SHT30;49136;47.416;19.402;2023-08-20T03:38:57;18.84;99.99
63051;SHT30;49136;47.416;19.402;2023-08-20T03:41:22;18.81;99.99
63051;SHT30;49136;47.416;19.402;2023-08-20T03:43:48;18.81;99.99
63051;SHT30;49136;47.416;19.402;2023-08-20T03:46:13;18.82;99.99
63051;SHT30;49136;47.416;19.402;2023-08-20T03:48:39;18.78;99.99
63051;SHT30;49136;47.416;19.402;2023-08-20T03:51:04;18.78;99.99
63051;SHT30;49136;47.416;19.402;2023-08-20T03:53:29;18.79;99.99
63051;SHT30;49136;47.416;19.402;2023-08-20T03:55:55;18.87;99.99
63051;SHT30;49136;47.416;19.402;2023-08-20T03:58:20;18.82;99.99
63051;SHT30;49136;47.416;19.402;2023-08-20T04:00:45;18.85;99.99
63051;SHT30;49136;47.416;19.402;2023-08-20T04:03:11;18.85;99.99
63051;SHT30;49136;47.416;19.402;2023-08-20T04:05:37;18.89;99.99
63051;SHT30;49136;47.416;19.402;2023-08-20T04:08:04;18.92;99.99
63051;SHT30;49136;47.416;19.402;2023-08-20T04:10:30;18.99;99.99
63051;SHT30;49136;47.416;19.402;2023-08-20T04:12:56;19.06;99.99
63051;SHT30;49136;47.416;19.402;2023-08-20T04:15:21;19.09;99.99
63051;SHT30;49136;47.416;19.402;2023-08-20T04:17:47;19.15;99.99
63051;SHT30;49136;47.416;19.402;2023-08-20T04:20:14;19.20;99.99
63051;SHT30;49136;47.416;19.402;2023-08-20T04:22:39;19.31;99.99
63051;SHT30;49136;47.416;19.402;2023-08-20T04:25:06;19.38;99.99
63051;SHT30;49136;47.416;19.402;2023-08-20T04:27:32;19.46;99.99
63051;SHT30;49136;47.416;19.402;2023-08-20T04:29:57;19.54;99.99
63051;SHT30;49136;47.416;19.402;2023-08-20T04:32:23;19.62;99.99
63051;SHT30;49136;47.416;19.402;2023-08-20T04:34:48;19.71;99.99
63051;SHT30;49136;47.416;19.402;2023-08-20T04:37:15;19.76;99.99
63051;SHT30;49136;47.416;19.402;2023-08-20T04:39:40;19.81;99.99
63051;SHT30;49136;47.416;19.402;2023-08-20T04:42:06;19.87;99.99
63051;SHT30;49136;47.416;19.402;2023-08-20T04:44:31;19.97;99.99
63051;SHT30;49136;47.416;19.402;2023-08-20T04:46:57;20.07;99.99
63051;SHT30;49136;47.416;19.402;2023-08-20T04:49:22;20.16;99.99
63051;SHT30;49136;47.416;19.402;2023-08-20T04:51:51;20.28;99.99
63051;SHT30;49136;47.416;19.402;2023-08-20T04:54:16;20.37;99.99
63051;SHT30;49136;47.416;19.402;2023-08-20T04:56:42;20.47;99.99
63051;SHT30;49136;47.416;19.402;2023-08-20T04:59:07;20.58;99.99
63051;SHT30;49136;47.416;19.402;2023-08-20T05:01:32;20.68;99.99
63051;SHT30;49136;47.416;19.402;2023-08-20T05:03:58;20.77;99.99
63051;SHT30;49136;47.416;19.402;2023-08-20T05:06:23;20.86;99.99
63051;SHT30;49136;47.416;19.402;2023-08-20T05:08:49;20.99;99.99
63051;SHT30;49136;47.416;19.402;2023-08-20T05:11:14;21.04;99.51
63051;SHT30;49136;47.416;19.402;2023-08-20T05:13:40;21.18;99.62
63051;SHT30;49136;47.416;19.402;2023-08-20T05:16:05;21.30;99.42
63051;SHT30;49136;47.416;19.402;2023-08-20T05:18:30;21.41;99.01
63051;SHT30;49136;47.416;19.402;2023-08-20T05:20:56;21.60;99.05
63051;SHT30;49136;47.416;19.402;2023-08-20T05:23:21;21.73;98.84
63051;SHT30;49136;47.416;19.402;2023-08-20T05:25:47;21.79;98.25
63051;SHT30;49136;47.416;19.402;2023-08-20T05:28:12;21.96;97.93
63051;SHT30;49136;47.416;19.402;2023-08-20T05:30:38;22.15;97.89
63051;SHT30;49136;47.416;19.402;2023-08-20T05:33:04;22.32;97.69
63051;SHT30;49136;47.416;19.402;2023-08-20T05:35:29;22.53;95.92
63051;SHT30;49136;47.416;19.402;2023-08-20T05:37:54;22.70;94.74
63051;SHT30;49136;47.416;19.402;2023-08-20T05:40:20;22.90;95.54
63051;SHT30;49136;47.416;19.402;2023-08-20T05:42:46;23.05;93.77
63051;SHT30;49136;47.416;19.402;2023-08-20T05:45:11;23.28;93.37
63051;SHT30;49136;47.416;19.402;2023-08-20T05:47:36;23.49;93.82
63051;SHT30;49136;47.416;19.402;2023-08-20T05:50:02;23.70;93.22
63051;SHT30;49136;47.416;19.402;2023-08-20T05:52:28;23.91;92.59
63051;SHT30;49136;47.416;19.402;2023-08-20T05:54:53;24.16;93.01
63051;SHT30;49136;47.416;19.402;2023-08-20T05:57:18;24.36;92.63
63051;SHT30;49136;47.416;19.402;2023-08-20T05:59:44;24.66;90.60
63051;SHT30;49136;47.416;19.402;2023-08-20T06:02:15;24.88;91.34
63051;SHT30;49136;47.416;19.402;2023-08-20T06:04:40;25.16;91.48
63051;SHT30;49136;47.416;19.402;2023-08-20T06:07:06;25.37;89.86
63051;SHT30;49136;47.416;19.402;2023-08-20T06:09:31;25.67;89.24
63051;SHT30;49136;47.416;19.402;2023-08-20T06:11:57;25.86;89.68
63051;SHT30;49136;47.416;19.402;2023-08-20T06:14:22;26.08;86.93
63051;SHT30;49136;47.416;19.402;2023-08-20T06:16:47;26.15;87.75
63051;SHT30;49136;47.416;19.402;2023-08-20T06:19:13;26.29;87.85
63051;SHT30;49136;47.416;19.402;2023-08-20T06:21:38;26.33;86.15
63051;SHT30;49136;47.416;19.402;2023-08-20T06:24:04;26.50;86.34
63051;SHT30;49136;47.416;19.402;2023-08-20T06:26:29;26.60;86.60
63051;SHT30;49136;47.416;19.402;2023-08-20T06:28:55;26.62;86.32
63051;SHT30;49136;47.416;19.402;2023-08-20T06:31:20;26.71;85.85
63051;SHT30;49136;47.416;19.402;2023-08-20T06:33:47;26.93;85.38
63051;SHT30;49136;47.416;19.402;2023-08-20T06:36:12;27.07;85.70
63051;SHT30;49136;47.416;19.402;2023-08-20T06:38:38;27.30;82.03
63051;SHT30;49136;47.416;19.402;2023-08-20T06:41:03;27.43;80.24
63051;SHT30;49136;47.416;19.402;2023-08-20T06:43:28;27.71;81.13
63051;SHT30;49136;47.416;19.402;2023-08-20T06:45:54;27.69;76.73
63051;SHT30;49136;47.416;19.402;2023-08-20T06:48:19;27.92;76.63
63051;SHT30;49136;47.416;19.402;2023-08-20T06:50:47;27.97;75.99
63051;SHT30;49136;47.416;19.402;2023-08-20T06:53:12;27.99;76.62
63051;SHT30;49136;47.416;19.402;2023-08-20T06:55:38;28.14;76.21
63051;SHT30;49136;47.416;19.402;2023-08-20T06:58:03;28.40;77.72
63051;SHT30;49136;47.416;19.402;2023-08-20T07:00:29;28.52;76.51
63051;SHT30;49136;47.416;19.402;2023-08-20T07:02:54;28.44;74.32
63051;SHT30;49136;47.416;19.402;2023-08-20T07:05:20;28.63;74.78
63051;SHT30;49136;47.416;19.402;2023-08-20T07:07:45;28.58;72.90
63051;SHT30;49136;47.416;19.402;2023-08-20T07:10:11;28.87;75.68
63051;SHT30;49136;47.416;19.402;2023-08-20T07:12:37;29.06;76.30
63051;SHT30;49136;47.416;19.402;2023-08-20T07:15:03;29.15;74.54
63051;SHT30;49136;47.416;19.402;2023-08-20T07:17:29;29.13;72.13
63051;SHT30;49136;47.416;19.402;2023-08-20T07:19:54;29.34;73.93
63051;SHT30;49136;47.416;19.402;2023-08-20T07:22:19;29.42;74.28
63051;SHT30;49136;47.416;19.402;2023-08-20T07:24:45;29.54;73.72
63051;SHT30;49136;47.416;19.402;2023-08-20T07:27:10;29.61;73.27
63051;SHT30;49136;47.416;19.402;2023-08-20T07:29:37;29.58;73.72
63051;SHT30;49136;47.416;19.402;2023-08-20T07:32:03;29.72;73.50
63051;SHT30;49136;47.416;19.402;2023-08-20T07:34:29;29.87;75.11
63051;SHT30;49136;47.416;19.402;2023-08-20T07:36:56;29.96;74.60
63051;SHT30;49136;47.416;19.402;2023-08-20T07:39:22;30.03;70.66
63051;SHT30;49136;47.416;19.402;2023-08-20T07:41:47;30.07;73.52
63051;SHT30;49136;47.416;19.402;2023-08-20T07:44:12;30.08;71.37
63051;SHT30;49136;47.416;19.402;2023-08-20T07:46:39;30.03;70.47
63051;SHT30;49136;47.416;19.402;2023-08-20T07:49:04;30.35;72.48
63051;SHT30;49136;47.416;19.402;2023-08-20T07:51:30;30.41;71.00
63051;SHT30;49136;47.416;19.402;2023-08-20T07:53:55;30.43;68.36
63051;SHT30;49136;47.416;19.402;2023-08-20T07:56:23;30.49;70.37
63051;SHT30;49136;47.416;19.402;2023-08-20T07:58:48;30.51;68.19
63051;SHT30;49136;47.416;19.402;2023-08-20T08:01:14;30.69;70.63
63051;SHT30;49136;47.416;19.402;2023-08-20T08:03:40;30.70;72.36
63051;SHT30;49136;47.416;19.402;2023-08-20T08:06:05;30.80;69.58
63051;SHT30;49136;47.416;19.402;2023-08-20T08:08:31;30.46;69.21
63051;SHT30;49136;47.416;19.402;2023-08-20T08:10:56;30.42;66.88
63051;SHT30;49136;47.416;19.402;2023-08-20T08:13:22;30.53;69.41
63051;SHT30;49136;47.416;19.402;2023-08-20T08:15:49;30.72;68.88
63051;SHT30;49136;47.416;19.402;2023-08-20T08:18:14;30.86;68.89
63051;SHT30;49136;47.416;19.402;2023-08-20T08:20:40;30.94;69.83
63051;SHT30;49136;47.416;19.402;2023-08-20T08:23:06;31.07;68.01
63051;SHT30;49136;47.416;19.402;2023-08-20T08:25:31;30.98;66.74
63051;SHT30;49136;47.416;19.402;2023-08-20T08:27:56;30.59;66.75
63051;SHT30;49136;47.416;19.402;2023-08-20T08:30:22;30.73;67.99
63051;SHT30;49136;47.416;19.402;2023-08-20T08:32:47;30.76;69.26
63051;SHT30;49136;47.416;19.402;2023-08-20T08:35:13;30.94;68.31
63051;SHT30;49136;47.416;19.402;2023-08-20T08:37:38;30.91;67.82
63051;SHT30;49136;47.416;19.402;2023-08-20T08:40:04;30.83;67.71
63051;SHT30;49136;47.416;19.402;2023-08-20T08:42:33;30.88;68.24
63051;SHT30;49136;47.416;19.402;2023-08-20T08:45:03;31.01;67.29
63051;SHT30;49136;47.416;19.402;2023-08-20T08:47:29;31.38;69.45
63051;SHT30;49136;47.416;19.402;2023-08-20T08:49:55;31.15;66.04
63051;SHT30;49136;47.416;19.402;2023-08-20T08:52:22;31.35;64.56
63051;SHT30;49136;47.416;19.402;2023-08-20T08:54:48;31.53;65.66
63051;SHT30;49136;47.416;19.402;2023-08-20T08:57:15;31.24;65.59
63051;SHT30;49136;47.416;19.402;2023-08-20T08:59:41;31.43;65.33
63051;SHT30;49136;47.416;19.402;2023-08-20T09:02:08;31.56;64.86
63051;SHT30;49136;47.416;19.402;2023-08-20T09:04:37;31.54;64.03
63051;SHT30;49136;47.416;19.402;2023-08-20T09:07:03;31.70;65.55
63051;SHT30;49136;47.416;19.402;2023-08-20T09:09:29;31.63;63.67
63051;SHT30;49136;47.416;19.402;2023-08-20T09:11:55;31.57;65.13
63051;SHT30;49136;47.416;19.402;2023-08-20T09:14:28;31.63;64.07
63051;SHT30;49136;47.416;19.402;2023-08-20T09:17:00;32.00;64.17
63051;SHT30;49136;47.416;19.402;2023-08-20T09:19:35;32.15;65.69
63051;SHT30;49136;47.416;19.402;2023-08-20T09:22:01;32.28;65.36
63051;SHT30;49136;47.416;19.402;2023-08-20T09:24:33;32.40;65.66
63051;SHT30;49136;47.416;19.402;2023-08-20T09:27:04;32.50;63.46
63051;SHT30;49136;47.416;19.402;2023-08-20T09:29:47;32.49;60.67
63051;SHT30;49136;47.416;19.402;2023-08-20T09:32:18;32.70;60.24
63051;SHT30;49136;47.416;19.402;2023-08-20T09:34:44;32.84;60.76
63051;SHT30;49136;47.416;19.402;2023-08-20T09:37:12;32.78;61.04
63051;SHT30;49136;47.416;19.402;2023-08-20T09:39:38;32.77;60.51
63051;SHT30;49136;47.416;19.402;2023-08-20T09:42:08;32.97;59.92
63051;SHT30;49136;47.416;19.402;2023-08-20T09:44:35;32.77;58.70
63051;SHT30;49136;47.416;19.402;2023-08-20T09:47:15;32.92;61.60
63051;SHT30;49136;47.416;19.402;2023-08-20T09:52:11;32.80;57.12
63051;SHT30;49136;47.416;19.402;2023-08-20T09:55:00;32.67;57.55
63051;SHT30;49136;47.416;19.402;2023-08-20T09:57:34;32.46;57.15
63051;SHT30;49136;47.416;19.402;2023-08-20T10:00:01;32.64;61.96
63051;SHT30;49136;47.416;19.402;2023-08-20T10:02:28;32.77;58.84
63051;SHT30;49136;47.416;19.402;2023-08-20T10:04:53;32.48;57.14
63051;SHT30;49136;47.416;19.402;2023-08-20T10:07:19;32.55;58.62
63051;SHT30;49136;47.416;19.402;2023-08-20T10:09:47;32.67;61.25
63051;SHT30;49136;47.416;19.402;2023-08-20T10:12:15;32.76;59.77
63051;SHT30;49136;47.416;19.402;2023-08-20T10:14:41;33.01;57.83
63051;SHT30;49136;47.416;19.402;2023-08-20T10:17:11;33.19;59.51
63051;SHT30;49136;47.416;19.402;2023-08-20T10:19:37;33.02;58.93
63051;SHT30;49136;47.416;19.402;2023-08-20T10:22:04;33.45;61.65
63051;SHT30;49136;47.416;19.402;2023-08-20T10:24:49;33.64;60.53
63051;SHT30;49136;47.416;19.402;2023-08-20T10:27:25;33.63;61.70
63051;SHT30;49136;47.416;19.402;2023-08-20T10:29:53;33.57;59.00
63051;SHT30;49136;47.416;19.402;2023-08-20T10:32:19;33.29;59.41
63051;SHT30;49136;47.416;19.402;2023-08-20T10:34:51;33.32;58.68
63051;SHT30;49136;47.416;19.402;2023-08-20T10:37:26;33.30;59.44
63051;SHT30;49136;47.416;19.402;2023-08-20T10:39:56;33.30;60.60
63051;SHT30;49136;47.416;19.402;2023-08-20T10:42:26;33.08;57.63
63051;SHT30;49136;47.416;19.402;2023-08-20T10:45:21;33.33;57.74
63051;SHT30;49136;47.416;19.402;2023-08-20T10:47:47;33.73;56.77
63051;SHT30;49136;47.416;19.402;2023-08-20T10:50:19;33.98;59.21
63051;SHT30;49136;47.416;19.402;2023-08-20T10:52:49;34.11;56.18
63051;SHT30;49136;47.416;19.402;2023-08-20T10:55:15;33.85;56.39
63051;SHT30;49136;47.416;19.402;2023-08-20T10:57:41;34.05;59.24
63051;SHT30;49136;47.416;19.402;2023-08-20T11:00:07;33.87;55.93
63051;SHT30;49136;47.416;19.402;2023-08-20T11:02:41;33.87;57.23
63051;SHT30;49136;47.416;19.402;2023-08-20T11:05:20;33.67;56.80
63051;SHT30;49136;47.416;19.402;2023-08-20T11:07:49;33.81;57.85
63051;SHT30;49136;47.416;19.402;2023-08-20T11:10:15;33.90;58.06
63051;SHT30;49136;47.416;19.402;2023-08-20T11:12:50;34.15;57.66
63051;SHT30;49136;47.416;19.402;2023-08-20T11:15:15;34.43;57.32
63051;SHT30;49136;47.416;19.402;2023-08-20T11:17:42;33.52;54.03
63051;SHT30;49136;47.416;19.402;2023-08-20T11:20:08;33.64;54.29
63051;SHT30;49136;47.416;19.402;2023-08-20T11:22:36;33.76;56.69
63051;SHT30;49136;47.416;19.402;2023-08-20T11:25:02;34.20;56.80
63051;SHT30;49136;47.416;19.402;2023-08-20T11:27:29;34.18;55.34
63051;SHT30;49136;47.416;19.402;2023-08-20T11:29:55;34.08;53.56
63051;SHT30;49136;47.416;19.402;2023-08-20T11:32:23;34.11;54.59
63051;SHT30;49136;47.416;19.402;2023-08-20T11:34:48;33.71;53.22
63051;SHT30;49136;47.416;19.402;2023-08-20T11:37:18;33.87;53.41
63051;SHT30;49136;47.416;19.402;2023-08-20T11:39:44;33.78;56.39
63051;SHT30;49136;47.416;19.402;2023-08-20T11:42:10;34.13;56.57
63051;SHT30;49136;47.416;19.402;2023-08-20T11:44:43;34.20;55.65
63051;SHT30;49136;47.416;19.402;2023-08-20T11:47:16;34.31;53.60
63051;SHT30;49136;47.416;19.402;2023-08-20T11:49:42;34.01;52.30
63051;SHT30;49136;47.416;19.402;2023-08-20T11:52:07;34.26;56.62
63051;SHT30;49136;47.416;19.402;2023-08-20T11:54:33;34.32;54.18
63051;SHT30;49136;47.416;19.402;2023-08-20T11:57:02;34.00;51.27
63051;SHT30;49136;47.416;19.402;2023-08-20T11:59:28;33.97;51.86
63051;SHT30;49136;47.416;19.402;2023-08-20T12:01:58;34.56;53.55
63051;SHT30;49136;47.416;19.402;2023-08-20T12:04:26;34.91;53.70
63051;SHT30;49136;47.416;19.402;2023-08-20T12:09:32;35.08;55.19
63051;SHT30;49136;47.416;19.402;2023-08-20T12:11:58;35.08;53.48
63051;SHT30;49136;47.416;19.402;2023-08-20T12:14:24;35.37;54.88
63051;SHT30;49136;47.416;19.402;2023-08-20T12:16:49;35.35;54.47
63051;SHT30;49136;47.416;19.402;2023-08-20T12:19:18;35.40;54.56
63051;SHT30;49136;47.416;19.402;2023-08-20T12:21:43;35.25;53.52
63051;SHT30;49136;47.416;19.402;2023-08-20T12:24:10;34.60;52.38
63051;SHT30;49136;47.416;19.402;2023-08-20T12:26:39;34.63;51.56
63051;SHT30;49136;47.416;19.402;2023-08-20T12:29:05;34.29;50.30
63051;SHT30;49136;47.416;19.402;2023-08-20T12:31:34;34.53;54.26
63051;SHT30;49136;47.416;19.402;2023-08-20T12:34:00;33.94;53.75
63051;SHT30;49136;47.416;19.402;2023-08-20T12:36:26;33.81;53.63
63051;SHT30;49136;47.416;19.402;2023-08-20T12:38:51;34.25;56.00
63051;SHT30;49136;47.416;19.402;2023-08-20T12:41:21;34.29;53.38
63051;SHT30;49136;47.416;19.402;2023-08-20T12:43:47;34.49;53.50
63051;SHT30;49136;47.416;19.402;2023-08-20T12:46:12;34.43;53.99
63051;SHT30;49136;47.416;19.402;2023-08-20T12:48:39;34.57;54.12
63051;SHT30;49136;47.416;19.402;2023-08-20T12:51:04;34.80;53.84
63051;SHT30;49136;47.416;19.402;2023-08-20T12:53:31;34.32;52.41
63051;SHT30;49136;47.416;19.402;2023-08-20T12:55:56;34.13;53.50
63051;SHT30;49136;47.416;19.402;2023-08-20T12:58:22;34.46;54.90
63051;SHT30;49136;47.416;19.402;2023-08-20T13:00:47;34.83;55.02
63051;SHT30;49136;47.416;19.402;2023-08-20T13:03:14;34.96;54.91
63051;SHT30;49136;47.416;19.402;2023-08-20T13:05:40;35.25;53.75
63051;SHT30;49136;47.416;19.402;2023-08-20T13:08:06;35.55;54.58
63051;SHT30;49136;47.416;19.402;2023-08-20T13:10:32;35.78;54.86
63051;SHT30;49136;47.416;19.402;2023-08-20T13:13:01;35.77;54.31
63051;SHT30;49136;47.416;19.402;2023-08-20T13:15:27;35.70;52.45
63051;SHT30;49136;47.416;19.402;2023-08-20T13:17:53;35.63;51.98
63051;SHT30;49136;47.416;19.402;2023-08-20T13:20:19;35.30;54.35
63051;SHT30;49136;47.416;19.402;2023-08-20T13:22:48;35.20;53.71
63051;SHT30;49136;47.416;19.402;2023-08-20T13:25:13;35.36;53.02
63051;SHT30;49136;47.416;19.402;2023-08-20T13:27:40;34.92;49.19
63051;SHT30;49136;47.416;19.402;2023-08-20T13:30:06;34.91;53.04
63051;SHT30;49136;47.416;19.402;2023-08-20T13:32:36;34.61;51.77
63051;SHT30;49136;47.416;19.402;2023-08-20T13:35:02;34.53;51.49
63051;SHT30;49136;47.416;19.402;2023-08-20T13:37:30;34.99;54.17
63051;SHT30;49136;47.416;19.402;2023-08-20T13:39:59;35.25;52.69
63051;SHT30;49136;47.416;19.402;2023-08-20T13:42:25;34.92;51.17
63051;SHT30;49136;47.416;19.402;2023-08-20T13:44:51;35.05;51.61
63051;SHT30;49136;47.416;19.402;2023-08-20T13:47:16;34.74;52.69
63051;SHT30;49136;47.416;19.402;2023-08-20T13:49:42;34.84;54.60
63051;SHT30;49136;47.416;19.402;2023-08-20T13:52:08;34.66;55.01
63051;SHT30;49136;47.416;19.402;2023-08-20T13:54:35;34.56;53.62
63051;SHT30;49136;47.416;19.402;2023-08-20T13:57:01;34.33;53.57
63051;SHT30;49136;47.416;19.402;2023-08-20T13:59:32;34.44;54.82
63051;SHT30;49136;47.416;19.402;2023-08-20T14:01:58;34.67;55.06
63051;SHT30;49136;47.416;19.402;2023-08-20T14:04:24;34.43;53.47
63051;SHT30;49136;47.416;19.402;2023-08-20T14:06:50;34.49;54.08
63051;SHT30;49136;47.416;19.402;2023-08-20T14:09:16;34.42;54.44
63051;SHT30;49136;47.416;19.402;2023-08-20T14:11:45;34.43;53.58
63051;SHT30;49136;47.416;19.402;2023-08-20T14:14:11;34.47;53.60
63051;SHT30;49136;47.416;19.402;2023-08-20T14:16:37;34.36;54.36
63051;SHT30;49136;47.416;19.402;2023-08-20T14:19:03;34.23;53.82
63051;SHT30;49136;47.416;19.402;2023-08-20T14:21:28;34.33;54.63
63051;SHT30;49136;47.416;19.402;2023-08-20T14:23:54;34.26;54.91
63051;SHT30;49136;47.416;19.402;2023-08-20T14:26:20;34.44;56.36
63051;SHT30;49136;47.416;19.402;2023-08-20T14:28:45;34.23;55.85
63051;SHT30;49136;47.416;19.402;2023-08-20T14:31:11;34.19;56.43
63051;SHT30;49136;47.416;19.402;2023-08-20T14:33:36;34.02;54.97
63051;SHT30;49136;47.416;19.402;2023-08-20T14:36:02;34.13;55.48
63051;SHT30;49136;47.416;19.402;2023-08-20T14:38:29;34.11;56.05
63051;SHT30;49136;47.416;19.402;2023-08-20T14:40:59;33.68;56.21
63051;SHT30;49136;47.416;19.402;2023-08-20T14:43:25;33.49;55.56
63051;SHT30;49136;47.416;19.402;2023-08-20T14:45:50;32.94;56.27
63051;SHT30;49136;47.416;19.402;2023-08-20T14:48:16;32.98;58.39
63051;SHT30;49136;47.416;19.402;2023-08-20T14:50:41;33.17;58.27
63051;SHT30;49136;47.416;19.402;2023-08-20T14:53:07;33.18;59.03
63051;SHT30;49136;47.416;19.402;2023-08-20T14:55:32;33.25;56.75
63051;SHT30;49136;47.416;19.402;2023-08-20T14:57:59;33.41;55.33
63051;SHT30;49136;47.416;19.402;2023-08-20T15:00:25;33.32;56.28
63051;SHT30;49136;47.416;19.402;2023-08-20T15:02:50;33.19;58.08
63051;SHT30;49136;47.416;19.402;2023-08-20T15:05:16;32.88;56.81
63051;SHT30;49136;47.416;19.402;2023-08-20T15:07:42;32.91;56.64
63051;SHT30;49136;47.416;19.402;2023-08-20T15:10:08;33.02;55.73
63051;SHT30;49136;47.416;19.402;2023-08-20T15:12:35;33.02;54.52
63051;SHT30;49136;47.416;19.402;2023-08-20T15:15:01;33.21;57.40
63051;SHT30;49136;47.416;19.402;2023-08-20T15:17:28;33.12;56.35
63051;SHT30;49136;47.416;19.402;2023-08-20T15:19:54;33.01;55.63
63051;SHT30;49136;47.416;19.402;2023-08-20T15:22:19;33.02;56.38
63051;SHT30;49136;47.416;19.402;2023-08-20T15:24:45;32.91;58.32